createdAt,value
2022-10-24T03:31:32.197Z,100.00
2022-10-24T03:34:01.630Z,100.00
2022-10-24T03:36:29.604Z,100.00
2022-10-24T03:38:57.646Z,100.00
2022-10-24T03:41:25.442Z,100.00
2022-10-24T03:43:53.503Z,100.00
2022-10-24T03:46:21.318Z,100.00
2022-10-24T03:48:49.459Z,100.00
2022-10-24T03:51:18.687Z,100.00
2022-10-24T03:53:46.713Z,100.00
2022-10-24T03:56:14.579Z,100.00
2022-10-24T03:58:42.694Z,100.00
2022-10-24T04:01:17.004Z,100.00
2022-10-24T04:03:45.706Z,100.00
2022-10-24T04:06:14.482Z,100.00
2022-10-24T04:08:43.969Z,100.00
2022-10-24T04:11:12.754Z,100.00
2022-10-24T04:13:40.772Z,100.00
2022-10-24T04:16:09.030Z,100.00
2022-10-24T04:18:37.037Z,100.00
2022-10-24T04:21:05.432Z,100.00
2022-10-24T04:23:38.574Z,100.00
2022-10-24T04:26:07.869Z,100.00
2022-10-24T04:28:35.816Z,100.00
2022-10-24T04:31:03.603Z,100.00
2022-10-24T04:33:31.736Z,100.00
2022-10-24T04:35:59.599Z,100.00
2022-10-24T04:38:32.559Z,100.00
2022-10-24T04:41:02.177Z,100.00
2022-10-24T04:43:31.705Z,100.00
2022-10-24T04:45:59.759Z,100.00
2022-10-24T04:48:27.752Z,100.00
2022-10-24T04:50:56.428Z,100.00
2022-10-24T04:53:24.417Z,100.00
2022-10-24T04:55:52.561Z,100.00
2022-10-24T04:58:20.858Z,100.00
2022-10-24T05:00:50.402Z,100.00
2022-10-24T05:03:18.588Z,100.00
2022-10-24T05:05:46.734Z,100.00
2022-10-24T05:08:14.518Z,100.00
2022-10-24T05:10:42.754Z,100.00
2022-10-24T05:13:11.051Z,100.00
2022-10-24T05:15:38.867Z,100.00
2022-10-24T05:18:08.501Z,100.00
2022-10-24T05:20:36.827Z,100.00
2022-10-24T05:23:04.727Z,100.00
2022-10-24T05:25:32.751Z,100.00
2022-10-24T05:28:00.460Z,100.00
2022-10-24T05:30:28.536Z,100.00
2022-10-24T05:32:56.477Z,100.00
2022-10-24T05:35:25.850Z,100.00
2022-10-24T05:37:53.557Z,100.00
2022-10-24T05:40:21.631Z,100.00
2022-10-24T05:42:50.827Z,100.00
2022-10-24T05:45:19.629Z,100.00
2022-10-24T05:47:47.888Z,100.00
2022-10-24T05:50:16.616Z,100.00
2022-10-24T05:52:47.211Z,100.00
2022-10-24T05:55:17.887Z,100.00
2022-10-24T05:57:47.153Z,100.00
2022-10-24T06:00:17.274Z,100.00
2022-10-24T06:05:15.610Z,100.00
2022-10-24T06:07:45.474Z,100.00
2022-10-24T06:10:14.328Z,100.00
2022-10-24T06:12:42.488Z,100.00
2022-10-24T06:15:11.824Z,100.00
2022-10-24T06:17:39.871Z,100.00
2022-10-24T06:20:08.984Z,100.00
2022-10-24T06:22:37.082Z,100.00
2022-10-24T06:25:07.272Z,100.00
2022-10-24T06:27:36.605Z,100.00
2022-10-24T06:30:05.320Z,100.00
2022-10-24T06:32:33.487Z,100.00
2022-10-24T06:35:02.071Z,100.00
2022-10-24T06:37:30.258Z,100.00
2022-10-24T06:39:58.100Z,100.00
2022-10-24T06:42:27.224Z,100.00
2022-10-24T06:44:55.100Z,100.00
2022-10-24T06:47:22.770Z,100.00
2022-10-24T06:49:50.661Z,100.00
2022-10-24T06:52:18.760Z,100.00
2022-10-24T06:54:46.667Z,100.00
2022-10-24T06:57:14.622Z,100.00
2022-10-24T06:59:43.862Z,100.00
2022-10-24T07:02:14.407Z,100.00
2022-10-24T07:04:42.767Z,100.00
2022-10-24T07:07:16.157Z,100.00
2022-10-24T07:09:44.484Z,100.00
2022-10-24T07:12:12.683Z,100.00
2022-10-24T07:14:40.616Z,100.00
2022-10-24T07:17:09.928Z,100.00
2022-10-24T07:19:37.760Z,100.00
2022-10-24T07:22:06.646Z,100.00
2022-10-24T07:24:34.895Z,100.00
2022-10-24T07:27:02.792Z,100.00
2022-10-24T07:29:30.780Z,100.00
2022-10-24T07:31:59.666Z,100.00
2022-10-24T07:34:28.886Z,100.00
2022-10-24T07:36:56.924Z,100.00
2022-10-24T07:39:24.855Z,100.00
2022-10-24T07:41:52.695Z,100.00
2022-10-24T07:44:20.933Z,100.00
2022-10-24T07:46:48.806Z,100.00
2022-10-24T07:49:17.077Z,100.00
2022-10-24T07:51:46.754Z,100.00
2022-10-24T07:54:14.615Z,100.00
2022-10-24T07:56:42.411Z,100.00
2022-10-24T07:59:29.760Z,100.00
2022-10-24T08:01:58.380Z,100.00
2022-10-24T08:04:26.625Z,100.00
2022-10-24T08:06:55.878Z,100.00
2022-10-24T08:09:24.498Z,100.00
2022-10-24T08:11:52.771Z,100.00
2022-10-24T08:14:20.488Z,100.00
2022-10-24T08:16:52.045Z,100.00
2022-10-24T08:19:19.804Z,100.00
2022-10-24T08:21:52.890Z,100.00
2022-10-24T08:24:21.970Z,100.00
2022-10-24T08:26:49.910Z,100.00
2022-10-24T08:29:22.327Z,100.00
2022-10-24T08:31:51.656Z,100.00
2022-10-24T08:34:20.137Z,100.00
2022-10-24T08:36:49.127Z,100.00
2022-10-24T08:39:17.728Z,100.00
2022-10-24T08:41:51.256Z,99.67
2022-10-24T08:44:26.771Z,100.00
2022-10-24T08:46:59.916Z,99.45
2022-10-24T08:49:39.378Z,98.99
2022-10-24T08:52:20.509Z,97.95
2022-10-24T08:54:55.817Z,98.02
2022-10-24T08:57:31.651Z,96.90
2022-10-24T09:00:04.885Z,95.36
2022-10-24T09:02:39.745Z,94.29
2022-10-24T09:05:22.301Z,94.05
2022-10-24T09:07:53.632Z,90.95
2022-10-24T09:10:27.840Z,86.87
2022-10-24T09:12:57.030Z,83.27
2022-10-24T09:15:34.731Z,83.07
2022-10-24T09:18:02.993Z,80.62
2022-10-24T09:20:33.732Z,75.39
2022-10-24T09:23:05.174Z,73.95
2022-10-24T09:25:35.691Z,76.62
2022-10-24T09:28:07.454Z,79.27
2022-10-24T09:30:37.603Z,78.97
2022-10-24T09:33:15.868Z,79.25
2022-10-24T09:35:44.325Z,78.63
2022-10-24T09:38:33.672Z,77.79
2022-10-24T09:41:05.205Z,70.97
2022-10-24T09:43:40.444Z,69.83
2022-10-24T09:46:10.941Z,63.16
2022-10-24T09:48:53.239Z,62.54
2022-10-24T09:51:33.563Z,65.02
2022-10-24T09:54:06.524Z,71.41
2022-10-24T09:56:39.928Z,70.89
2022-10-24T09:59:28.581Z,72.82
2022-10-24T10:02:19.606Z,72.32
2022-10-24T10:04:48.823Z,71.71
2022-10-24T10:07:20.082Z,68.31
2022-10-24T10:09:55.647Z,63.89
2022-10-24T10:12:31.210Z,68.17
2022-10-24T10:14:59.409Z,69.75
2022-10-24T10:17:31.378Z,71.13
2022-10-24T10:20:00.161Z,71.72
2022-10-24T10:22:29.723Z,69.68
2022-10-24T10:24:59.692Z,68.12
2022-10-24T10:27:34.687Z,67.80
2022-10-24T10:30:15.967Z,61.57
2022-10-24T10:32:55.504Z,51.94
2022-10-24T10:35:27.796Z,51.46
2022-10-24T10:38:01.116Z,55.17
2022-10-24T10:40:32.536Z,57.45
2022-10-24T10:43:18.367Z,59.47
2022-10-24T10:45:48.791Z,57.42
2022-10-24T10:48:40.266Z,52.18
2022-10-24T10:51:17.479Z,50.60
2022-10-24T10:53:55.164Z,43.92
2022-10-24T10:56:35.312Z,40.84
2022-10-24T10:59:23.551Z,46.43
2022-10-24T11:02:00.938Z,49.22
2022-10-24T11:04:38.543Z,45.88
2022-10-24T11:07:14.086Z,42.24
2022-10-24T11:09:45.737Z,39.43
2022-10-24T11:12:18.510Z,41.09
2022-10-24T11:14:51.238Z,44.93
2022-10-24T11:17:24.382Z,49.58
2022-10-24T11:20:04.234Z,50.67
2022-10-24T11:22:38.404Z,50.67
2022-10-24T11:25:10.871Z,51.51
2022-10-24T11:27:45.225Z,55.31
2022-10-24T11:30:16.346Z,59.25
2022-10-24T11:32:50.405Z,60.01
2022-10-24T11:35:26.800Z,59.58
2022-10-24T11:37:59.738Z,60.74
2022-10-24T11:40:30.005Z,61.24
2022-10-24T11:43:05.110Z,62.23
2022-10-24T11:45:40.050Z,63.06
2022-10-24T11:48:15.237Z,63.89
2022-10-24T11:50:49.776Z,64.40
2022-10-24T11:53:45.818Z,63.03
2022-10-24T11:56:20.412Z,60.59
2022-10-24T11:58:57.786Z,59.35
2022-10-24T12:01:45.577Z,57.43
2022-10-24T12:04:44.126Z,60.31
2022-10-24T12:10:19.673Z,59.67
2022-10-24T12:13:08.949Z,60.34
2022-10-24T12:15:47.729Z,59.28
2022-10-24T12:18:30.423Z,56.92
2022-10-24T12:21:03.026Z,55.20
2022-10-24T12:23:32.482Z,47.93
2022-10-24T12:26:07.429Z,47.08
2022-10-24T12:28:36.465Z,46.07
2022-10-24T12:31:22.351Z,44.77
2022-10-24T12:34:31.979Z,44.07
2022-10-24T12:37:11.986Z,44.66
2022-10-24T12:39:45.770Z,44.69
2022-10-24T12:42:41.763Z,41.65
2022-10-24T12:45:29.541Z,43.72
2022-10-24T12:48:27.403Z,40.36
2022-10-24T12:51:00.153Z,37.15
2022-10-24T12:53:37.805Z,42.01
2022-10-24T12:59:02.154Z,50.14
2022-10-24T13:01:37.978Z,51.59
2022-10-24T13:04:37.487Z,54.27
2022-10-24T13:07:48.328Z,56.65
2022-10-24T13:10:45.593Z,52.86
2022-10-24T13:13:45.705Z,49.61
2022-10-24T13:16:26.127Z,46.57
2022-10-24T13:19:09.327Z,46.11
2022-10-24T13:21:47.162Z,46.34
2022-10-24T13:24:25.673Z,48.73
2022-10-24T13:27:26.296Z,51.38
2022-10-24T13:30:25.501Z,52.47
2022-10-24T13:33:40.945Z,52.29
2022-10-24T13:36:16.825Z,51.79
2022-10-24T13:38:50.394Z,53.41
2022-10-24T13:41:26.466Z,54.29
2022-10-24T13:43:57.759Z,56.62
2022-10-24T13:46:31.479Z,59.75
2022-10-24T13:49:02.855Z,61.18
2022-10-24T13:51:38.843Z,56.37
2022-10-24T13:54:14.938Z,55.14
2022-10-24T13:56:45.346Z,54.83
2022-10-24T13:59:30.679Z,54.98
2022-10-24T14:02:02.946Z,54.22
2022-10-24T14:04:35.092Z,54.73
2022-10-24T14:07:06.090Z,54.64
2022-10-24T14:09:41.158Z,54.81
2022-10-24T14:12:18.652Z,55.14
2022-10-24T14:14:49.441Z,54.67
2022-10-24T14:17:24.041Z,54.84
2022-10-24T14:19:57.266Z,55.16
2022-10-24T14:22:29.474Z,55.62
2022-10-24T14:24:57.869Z,55.95
2022-10-24T14:27:26.424Z,55.83
2022-10-24T14:29:59.048Z,55.26
2022-10-24T14:32:29.944Z,54.71
2022-10-24T14:37:35.888Z,46.36
2022-10-24T14:40:05.713Z,45.26
2022-10-24T14:42:34.368Z,45.08
2022-10-24T14:45:02.787Z,45.32
2022-10-24T14:47:32.960Z,44.30
2022-10-24T14:50:03.234Z,41.84
2022-10-24T14:52:37.053Z,45.50
2022-10-24T14:55:08.906Z,47.54
2022-10-24T14:57:39.262Z,49.87
2022-10-24T15:00:19.894Z,52.04
2022-10-24T15:02:49.649Z,52.62
2022-10-24T15:05:31.333Z,53.85
2022-10-24T15:08:22.538Z,53.72
2022-10-24T15:11:02.569Z,54.60
2022-10-24T15:13:33.628Z,54.86
2022-10-24T15:16:02.897Z,55.45
2022-10-24T15:18:33.272Z,54.99
2022-10-24T15:21:07.152Z,55.38
2022-10-24T15:23:37.908Z,55.68
2022-10-24T15:26:12.457Z,55.69
2022-10-24T15:28:47.691Z,56.00
2022-10-24T15:31:18.144Z,56.15
2022-10-24T15:33:47.033Z,57.25
2022-10-24T15:36:22.979Z,58.03
2022-10-24T15:38:55.304Z,59.08
2022-10-24T15:41:24.003Z,60.53
2022-10-24T15:43:51.823Z,61.28
2022-10-24T15:46:22.186Z,61.64
2022-10-24T15:48:50.891Z,61.82
2022-10-24T15:51:22.384Z,61.76
2022-10-24T15:53:51.861Z,62.05
2022-10-24T15:56:19.969Z,62.65
2022-10-24T16:01:26.468Z,64.28
2022-10-24T16:03:55.001Z,63.87
2022-10-24T16:06:24.861Z,64.05
2022-10-24T16:08:53.197Z,64.38
2022-10-24T16:11:21.323Z,65.32
2022-10-24T16:13:49.797Z,65.87
2022-10-24T16:16:17.593Z,66.48
2022-10-24T16:18:45.891Z,66.77
2022-10-24T16:21:18.476Z,67.50
2022-10-24T16:23:48.682Z,67.71
2022-10-24T16:26:17.646Z,67.86
2022-10-24T16:28:45.583Z,68.12
2022-10-24T16:31:19.608Z,68.58
2022-10-24T16:33:47.927Z,68.69
2022-10-24T16:36:18.466Z,68.79
2022-10-24T16:38:50.486Z,69.73
2022-10-24T16:41:19.726Z,70.01
2022-10-24T16:43:49.932Z,70.20
2022-10-24T16:46:19.551Z,70.99
2022-10-24T16:48:48.705Z,71.16
2022-10-24T16:51:19.741Z,71.24
2022-10-24T16:53:47.980Z,71.55
2022-10-24T16:56:17.736Z,71.88
2022-10-24T16:58:45.887Z,72.20
2022-10-24T17:01:16.132Z,72.54
